Andover, Illinois
Current Conditions -  °F | °C
As of 3:52 PM on Monday 22 Dec 2014 (Local Time) from KMLI Reporting Station
Haze Haze  
Wind Chill: 34°   Ceiling: 500
Heat Index: 39°   Visibility: 2mi
Dew Point: 37°   Wind: 7mph
Humidity: 93%   Direction: 100°E
Pressure: 29.57"   Gusts: NA
Location:  41.29°N, 90.29°W
Report Text: KMLI 222152Z 10006KT 2SM BR OVC005 04/03 A2957 RMK AO2 RAB2053E15 SLP018 P0000 T00390028
Loading
Personal Weather Stations






























Interactive Weather Map New forecast layout! Learn more

10-Day Weather Forecast

Advertisements
Track Severe Weather on mobile